X01 weather

Public forecast

Using degrees Fahrenheit for public forecast. Weather courtesy of forecast.io.

Closest aviation weather report (METAR) to Everglades Airpark

Closest report is Marco Island Executive Airport, 17.6 nm (32.6 km) WNW. Retrieved 2020/08/10 04:56 UTC (8 minutes ago):

KMKY 100456Z AUTO 08004KT 10SM CLR 24/24 A3012 RMK AO2 SLP199 T02440239 TSNO

Closest aviation forecast (TAF) to Everglades Airpark

Closest forecast is Naples Municipal Airport, 27.7 nm (51.2 km) NW. Retrieved 2020-08-10 00:34 UTC (4 hours ago):

TAF KAPF 092331Z 1000/1024 05008KT P6SM SCT050 BKN100 FM100200 VRB03KT P6SM SCT250 FM101400 09010KT P6SM VCTS SCT030CB SCT150 FM101800 25010KT P6SM VCTS SCT030CB BKN050